sensor_id;sensor_type;location;lat;lon;timestamp;P1;durP1;ratioP1;P2;durP2;ratioP2
46481;SDS011;32193;51.446;6.792;2022-07-11T00:02:23;11.95;;;2.72;;
46481;SDS011;32193;51.446;6.792;2022-07-11T00:04:49;9.95;;;3.00;;
46481;SDS011;32193;51.446;6.792;2022-07-11T00:07:15;8.90;;;2.80;;
46481;SDS011;32193;51.446;6.792;2022-07-11T00:09:41;8.55;;;2.70;;
46481;SDS011;32193;51.446;6.792;2022-07-11T00:12:07;10.95;;;2.30;;
46481;SDS011;32193;51.446;6.792;2022-07-11T00:14:33;7.88;;;2.58;;
46481;SDS011;32193;51.446;6.792;2022-07-11T00:16:59;7.75;;;2.20;;
46481;SDS011;32193;51.446;6.792;2022-07-11T00:19:25;8.23;;;2.70;;
46481;SDS011;32193;51.446;6.792;2022-07-11T00:21:51;7.60;;;2.65;;
46481;SDS011;32193;51.446;6.792;2022-07-11T00:24:17;9.00;;;2.67;;
46481;SDS011;32193;51.446;6.792;2022-07-11T00:26:45;8.73;;;2.40;;
46481;SDS011;32193;51.446;6.792;2022-07-11T00:29:12;7.35;;;2.53;;
46481;SDS011;32193;51.446;6.792;2022-07-11T00:31:38;7.55;;;2.70;;
46481;SDS011;32193;51.446;6.792;2022-07-11T00:34:04;13.88;;;3.15;;
46481;SDS011;32193;51.446;6.792;2022-07-11T00:36:30;8.55;;;2.70;;
46481;SDS011;32193;51.446;6.792;2022-07-11T00:38:57;11.82;;;3.33;;
46481;SDS011;32193;51.446;6.792;2022-07-11T00:41:23;7.43;;;2.22;;
46481;SDS011;32193;51.446;6.792;2022-07-11T00:43:52;6.63;;;2.45;;
46481;SDS011;32193;51.446;6.792;2022-07-11T00:46:19;6.85;;;2.00;;
46481;SDS011;32193;51.446;6.792;2022-07-11T00:48:45;8.15;;;2.10;;
46481;SDS011;32193;51.446;6.792;2022-07-11T00:51:12;9.52;;;2.22;;
46481;SDS011;32193;51.446;6.792;2022-07-11T00:53:38;9.35;;;2.53;;
46481;SDS011;32193;51.446;6.792;2022-07-11T00:56:06;7.22;;;2.38;;
46481;SDS011;32193;51.446;6.792;2022-07-11T00:58:33;8.40;;;1.90;;
46481;SDS011;32193;51.446;6.792;2022-07-11T01:00:59;6.65;;;1.73;;
46481;SDS011;32193;51.446;6.792;2022-07-11T01:03:26;8.25;;;1.88;;
46481;SDS011;32193;51.446;6.792;2022-07-11T01:05:52;8.75;;;1.67;;
46481;SDS011;32193;51.446;6.792;2022-07-11T01:08:17;5.50;;;1.55;;
46481;SDS011;32193;51.446;6.792;2022-07-11T01:10:43;5.88;;;1.80;;
46481;SDS011;32193;51.446;6.792;2022-07-11T01:13:09;8.57;;;1.88;;
46481;SDS011;32193;51.446;6.792;2022-07-11T01:15:35;9.00;;;2.00;;
46481;SDS011;32193;51.446;6.792;2022-07-11T01:18:04;6.25;;;1.95;;
46481;SDS011;32193;51.446;6.792;2022-07-11T01:20:29;8.52;;;2.30;;
46481;SDS011;32193;51.446;6.792;2022-07-11T01:23:00;6.88;;;2.00;;
46481;SDS011;32193;51.446;6.792;2022-07-11T01:25:27;10.05;;;2.88;;
46481;SDS011;32193;51.446;6.792;2022-07-11T01:27:59;9.90;;;2.42;;
46481;SDS011;32193;51.446;6.792;2022-07-11T01:30:30;10.18;;;2.35;;
46481;SDS011;32193;51.446;6.792;2022-07-11T01:32:59;5.25;;;1.98;;
46481;SDS011;32193;51.446;6.792;2022-07-11T01:35:25;9.43;;;2.47;;
46481;SDS011;32193;51.446;6.792;2022-07-11T01:37:51;6.88;;;2.05;;
46481;SDS011;32193;51.446;6.792;2022-07-11T01:40:17;6.32;;;2.10;;
46481;SDS011;32193;51.446;6.792;2022-07-11T01:42:44;7.65;;;2.40;;
46481;SDS011;32193;51.446;6.792;2022-07-11T01:45:11;8.00;;;2.65;;
46481;SDS011;32193;51.446;6.792;2022-07-11T01:47:37;7.30;;;2.25;;
46481;SDS011;32193;51.446;6.792;2022-07-11T01:50:03;12.25;;;2.30;;
46481;SDS011;32193;51.446;6.792;2022-07-11T01:52:30;6.57;;;2.20;;
46481;SDS011;32193;51.446;6.792;2022-07-11T01:54:56;8.63;;;2.25;;
46481;SDS011;32193;51.446;6.792;2022-07-11T01:57:22;9.90;;;2.28;;
46481;SDS011;32193;51.446;6.792;2022-07-11T01:59:47;7.47;;;2.13;;
46481;SDS011;32193;51.446;6.792;2022-07-11T02:02:14;7.00;;;2.10;;
46481;SDS011;32193;51.446;6.792;2022-07-11T02:04:40;5.63;;;1.65;;
46481;SDS011;32193;51.446;6.792;2022-07-11T02:07:06;8.93;;;2.10;;
46481;SDS011;32193;51.446;6.792;2022-07-11T02:09:31;7.43;;;2.63;;
46481;SDS011;32193;51.446;6.792;2022-07-11T02:11:57;9.07;;;2.25;;
46481;SDS011;32193;51.446;6.792;2022-07-11T02:14:23;10.68;;;2.40;;
46481;SDS011;32193;51.446;6.792;2022-07-11T02:16:49;7.57;;;2.00;;
46481;SDS011;32193;51.446;6.792;2022-07-11T02:19:15;7.57;;;2.13;;
46481;SDS011;32193;51.446;6.792;2022-07-11T02:21:41;9.10;;;2.40;;
46481;SDS011;32193;51.446;6.792;2022-07-11T02:24:07;7.88;;;2.22;;
46481;SDS011;32193;51.446;6.792;2022-07-11T02:26:33;8.05;;;2.20;;
46481;SDS011;32193;51.446;6.792;2022-07-11T02:28:59;8.73;;;2.22;;
46481;SDS011;32193;51.446;6.792;2022-07-11T02:31:25;6.72;;;2.08;;
46481;SDS011;32193;51.446;6.792;2022-07-11T02:33:51;16.40;;;2.85;;
46481;SDS011;32193;51.446;6.792;2022-07-11T02:36:17;12.55;;;1.92;;
46481;SDS011;32193;51.446;6.792;2022-07-11T02:38:42;11.05;;;3.10;;
46481;SDS011;32193;51.446;6.792;2022-07-11T02:41:08;6.85;;;1.77;;
46481;SDS011;32193;51.446;6.792;2022-07-11T02:43:34;10.10;;;1.70;;
46481;SDS011;32193;51.446;6.792;2022-07-11T02:46:00;9.02;;;1.80;;
46481;SDS011;32193;51.446;6.792;2022-07-11T02:48:26;5.03;;;1.52;;
46481;SDS011;32193;51.446;6.792;2022-07-11T02:50:52;5.53;;;1.60;;
46481;SDS011;32193;51.446;6.792;2022-07-11T02:53:18;5.88;;;1.42;;
46481;SDS011;32193;51.446;6.792;2022-07-11T02:55:44;5.22;;;1.50;;
46481;SDS011;32193;51.446;6.792;2022-07-11T02:58:10;7.57;;;1.50;;
46481;SDS011;32193;51.446;6.792;2022-07-11T03:00:36;5.05;;;1.75;;
46481;SDS011;32193;51.446;6.792;2022-07-11T03:03:02;5.60;;;1.10;;
46481;SDS011;32193;51.446;6.792;2022-07-11T03:05:28;4.80;;;1.42;;
46481;SDS011;32193;51.446;6.792;2022-07-11T03:07:54;5.03;;;1.25;;
46481;SDS011;32193;51.446;6.792;2022-07-11T03:10:20;3.30;;;1.08;;
46481;SDS011;32193;51.446;6.792;2022-07-11T03:12:48;13.15;;;1.98;;
46481;SDS011;32193;51.446;6.792;2022-07-11T03:15:14;11.20;;;1.60;;
46481;SDS011;32193;51.446;6.792;2022-07-11T03:17:40;6.15;;;1.20;;
46481;SDS011;32193;51.446;6.792;2022-07-11T03:20:06;4.65;;;1.13;;
46481;SDS011;32193;51.446;6.792;2022-07-11T03:22:33;5.47;;;1.00;;
46481;SDS011;32193;51.446;6.792;2022-07-11T03:25:00;5.25;;;1.10;;
46481;SDS011;32193;51.446;6.792;2022-07-11T03:27:28;5.57;;;1.20;;
46481;SDS011;32193;51.446;6.792;2022-07-11T03:29:54;2.95;;;0.70;;
46481;SDS011;32193;51.446;6.792;2022-07-11T03:32:19;3.53;;;0.80;;
46481;SDS011;32193;51.446;6.792;2022-07-11T03:34:46;3.88;;;1.05;;
46481;SDS011;32193;51.446;6.792;2022-07-11T03:37:32;3.88;;;0.77;;
46481;SDS011;32193;51.446;6.792;2022-07-11T03:39:58;3.60;;;0.95;;
46481;SDS011;32193;51.446;6.792;2022-07-11T03:42:24;4.00;;;1.00;;
46481;SDS011;32193;51.446;6.792;2022-07-11T03:44:50;3.25;;;1.05;;
46481;SDS011;32193;51.446;6.792;2022-07-11T03:47:19;3.92;;;0.80;;
46481;SDS011;32193;51.446;6.792;2022-07-11T03:49:45;9.32;;;1.25;;
46481;SDS011;32193;51.446;6.792;2022-07-11T03:52:11;4.72;;;1.10;;
46481;SDS011;32193;51.446;6.792;2022-07-11T03:54:37;4.85;;;1.00;;
46481;SDS011;32193;51.446;6.792;2022-07-11T03:57:03;4.75;;;1.10;;
46481;SDS011;32193;51.446;6.792;2022-07-11T03:59:29;4.80;;;1.10;;
46481;SDS011;32193;51.446;6.792;2022-07-11T04:01:55;5.03;;;1.40;;
46481;SDS011;32193;51.446;6.792;2022-07-11T04:04:21;3.45;;;0.95;;
46481;SDS011;32193;51.446;6.792;2022-07-11T04:06:47;4.72;;;0.80;;
46481;SDS011;32193;51.446;6.792;2022-07-11T04:09:12;4.15;;;0.95;;
46481;SDS011;32193;51.446;6.792;2022-07-11T04:11:38;5.18;;;0.90;;
46481;SDS011;32193;51.446;6.792;2022-07-11T04:14:04;4.22;;;1.17;;
46481;SDS011;32193;51.446;6.792;2022-07-11T04:16:30;3.17;;;0.80;;
46481;SDS011;32193;51.446;6.792;2022-07-11T04:18:56;3.40;;;0.82;;
46481;SDS011;32193;51.446;6.792;2022-07-11T04:21:22;4.88;;;0.60;;
46481;SDS011;32193;51.446;6.792;2022-07-11T04:23:47;2.45;;;0.70;;
46481;SDS011;32193;51.446;6.792;2022-07-11T04:26:13;2.58;;;0.63;;
46481;SDS011;32193;51.446;6.792;2022-07-11T04:28:40;5.35;;;0.88;;
46481;SDS011;32193;51.446;6.792;2022-07-11T04:31:06;3.35;;;0.70;;
46481;SDS011;32193;51.446;6.792;2022-07-11T04:33:31;3.10;;;1.08;;
46481;SDS011;32193;51.446;6.792;2022-07-11T04:35:57;8.77;;;1.63;;
46481;SDS011;32193;51.446;6.792;2022-07-11T04:38:22;6.00;;;0.88;;
46481;SDS011;32193;51.446;6.792;2022-07-11T04:40:49;2.65;;;0.50;;
46481;SDS011;32193;51.446;6.792;2022-07-11T04:43:15;3.88;;;0.60;;
46481;SDS011;32193;51.446;6.792;2022-07-11T04:45:41;2.50;;;0.68;;
46481;SDS011;32193;51.446;6.792;2022-07-11T04:48:06;3.33;;;0.80;;
46481;SDS011;32193;51.446;6.792;2022-07-11T04:50:32;4.75;;;0.90;;
46481;SDS011;32193;51.446;6.792;2022-07-11T04:52:58;4.40;;;0.90;;
46481;SDS011;32193;51.446;6.792;2022-07-11T04:55:24;3.78;;;0.73;;
46481;SDS011;32193;51.446;6.792;2022-07-11T04:57:50;7.13;;;1.10;;
46481;SDS011;32193;51.446;6.792;2022-07-11T05:00:16;2.35;;;0.60;;
46481;SDS011;32193;51.446;6.792;2022-07-11T05:02:42;3.63;;;0.93;;
46481;SDS011;32193;51.446;6.792;2022-07-11T05:05:08;3.70;;;0.80;;
46481;SDS011;32193;51.446;6.792;2022-07-11T05:07:34;2.33;;;0.60;;
46481;SDS011;32193;51.446;6.792;2022-07-11T05:09:59;1.80;;;0.57;;
46481;SDS011;32193;51.446;6.792;2022-07-11T05:12:25;3.38;;;0.70;;
46481;SDS011;32193;51.446;6.792;2022-07-11T05:14:51;4.28;;;0.77;;
46481;SDS011;32193;51.446;6.792;2022-07-11T05:17:16;6.60;;;0.70;;
46481;SDS011;32193;51.446;6.792;2022-07-11T05:19:42;3.72;;;0.75;;
46481;SDS011;32193;51.446;6.792;2022-07-11T05:22:08;5.60;;;1.20;;
46481;SDS011;32193;51.446;6.792;2022-07-11T05:24:35;4.97;;;0.80;;
46481;SDS011;32193;51.446;6.792;2022-07-11T05:27:01;4.65;;;1.13;;
46481;SDS011;32193;51.446;6.792;2022-07-11T05:29:27;4.18;;;1.00;;
46481;SDS011;32193;51.446;6.792;2022-07-11T05:31:53;3.95;;;0.90;;
46481;SDS011;32193;51.446;6.792;2022-07-11T05:34:19;1.98;;;0.60;;
46481;SDS011;32193;51.446;6.792;2022-07-11T05:36:45;3.72;;;0.80;;
46481;SDS011;32193;51.446;6.792;2022-07-11T05:39:12;4.25;;;0.93;;
46481;SDS011;32193;51.446;6.792;2022-07-11T05:41:38;3.03;;;0.77;;
46481;SDS011;32193;51.446;6.792;2022-07-11T05:44:04;3.38;;;0.75;;
46481;SDS011;32193;51.446;6.792;2022-07-11T05:46:29;4.13;;;0.80;;
46481;SDS011;32193;51.446;6.792;2022-07-11T05:48:55;2.70;;;0.77;;
46481;SDS011;32193;51.446;6.792;2022-07-11T05:51:21;3.08;;;0.90;;
46481;SDS011;32193;51.446;6.792;2022-07-11T05:53:47;3.78;;;1.10;;
46481;SDS011;32193;51.446;6.792;2022-07-11T05:56:12;7.40;;;1.13;;
46481;SDS011;32193;51.446;6.792;2022-07-11T05:58:38;3.40;;;0.98;;
46481;SDS011;32193;51.446;6.792;2022-07-11T06:01:04;3.65;;;0.90;;
46481;SDS011;32193;51.446;6.792;2022-07-11T06:03:30;5.35;;;1.13;;
46481;SDS011;32193;51.446;6.792;2022-07-11T06:05:55;8.70;;;0.98;;
46481;SDS011;32193;51.446;6.792;2022-07-11T06:08:21;4.57;;;1.30;;
46481;SDS011;32193;51.446;6.792;2022-07-11T06:11:14;4.35;;;1.00;;
46481;SDS011;32193;51.446;6.792;2022-07-11T06:13:40;4.43;;;1.17;;
46481;SDS011;32193;51.446;6.792;2022-07-11T06:16:07;7.57;;;1.98;;
46481;SDS011;32193;51.446;6.792;2022-07-11T06:18:34;3.45;;;0.93;;
46481;SDS011;32193;51.446;6.792;2022-07-11T06:21:00;8.63;;;2.35;;
46481;SDS011;32193;51.446;6.792;2022-07-11T06:23:26;3.85;;;1.25;;
46481;SDS011;32193;51.446;6.792;2022-07-11T06:25:53;8.73;;;2.30;;
46481;SDS011;32193;51.446;6.792;2022-07-11T06:28:19;3.47;;;0.95;;
46481;SDS011;32193;51.446;6.792;2022-07-11T06:30:44;4.05;;;1.20;;
46481;SDS011;32193;51.446;6.792;2022-07-11T06:33:10;4.80;;;1.00;;
46481;SDS011;32193;51.446;6.792;2022-07-11T06:35:36;5.97;;;1.05;;
46481;SDS011;32193;51.446;6.792;2022-07-11T06:38:02;7.10;;;1.42;;
46481;SDS011;32193;51.446;6.792;2022-07-11T06:40:28;6.72;;;1.73;;
46481;SDS011;32193;51.446;6.792;2022-07-11T06:42:54;4.93;;;1.25;;
46481;SDS011;32193;51.446;6.792;2022-07-11T06:45:20;5.82;;;1.65;;
46481;SDS011;32193;51.446;6.792;2022-07-11T06:47:46;7.88;;;1.60;;
46481;SDS011;32193;51.446;6.792;2022-07-11T06:50:12;6.07;;;1.40;;
46481;SDS011;32193;51.446;6.792;2022-07-11T06:52:38;6.15;;;1.35;;
46481;SDS011;32193;51.446;6.792;2022-07-11T06:55:04;6.65;;;1.50;;
46481;SDS011;32193;51.446;6.792;2022-07-11T06:57:30;7.43;;;1.42;;
46481;SDS011;32193;51.446;6.792;2022-07-11T06:59:56;11.20;;;1.50;;
46481;SDS011;32193;51.446;6.792;2022-07-11T07:02:21;7.68;;;1.48;;
46481;SDS011;32193;51.446;6.792;2022-07-11T07:04:52;8.07;;;1.67;;
46481;SDS011;32193;51.446;6.792;2022-07-11T07:07:19;5.32;;;1.67;;
46481;SDS011;32193;51.446;6.792;2022-07-11T07:09:44;4.55;;;1.10;;
46481;SDS011;32193;51.446;6.792;2022-07-11T07:12:10;6.40;;;1.20;;
46481;SDS011;32193;51.446;6.792;2022-07-11T07:14:36;5.78;;;1.20;;
46481;SDS011;32193;51.446;6.792;2022-07-11T07:17:01;5.15;;;1.00;;
46481;SDS011;32193;51.446;6.792;2022-07-11T07:19:27;5.53;;;1.35;;
46481;SDS011;32193;51.446;6.792;2022-07-11T07:21:53;5.03;;;1.27;;
46481;SDS011;32193;51.446;6.792;2022-07-11T07:24:19;8.70;;;1.58;;
46481;SDS011;32193;51.446;6.792;2022-07-11T07:26:45;6.15;;;1.45;;
46481;SDS011;32193;51.446;6.792;2022-07-11T07:29:11;5.18;;;1.20;;
46481;SDS011;32193;51.446;6.792;2022-07-11T07:31:37;5.35;;;1.90;;
46481;SDS011;32193;51.446;6.792;2022-07-11T07:34:02;4.25;;;1.50;;
46481;SDS011;32193;51.446;6.792;2022-07-11T07:36:28;43.63;;;3.50;;
46481;SDS011;32193;51.446;6.792;2022-07-11T07:38:54;17.02;;;1.77;;
46481;SDS011;32193;51.446;6.792;2022-07-11T07:41:19;11.88;;;1.48;;
46481;SDS011;32193;51.446;6.792;2022-07-11T07:43:45;6.95;;;1.75;;
46481;SDS011;32193;51.446;6.792;2022-07-11T07:46:13;2.90;;;0.80;;
46481;SDS011;32193;51.446;6.792;2022-07-11T07:48:39;5.53;;;1.20;;
46481;SDS011;32193;51.446;6.792;2022-07-11T07:51:06;4.93;;;1.10;;
46481;SDS011;32193;51.446;6.792;2022-07-11T07:53:32;5.50;;;1.35;;
46481;SDS011;32193;51.446;6.792;2022-07-11T07:55:58;7.45;;;1.33;;
46481;SDS011;32193;51.446;6.792;2022-07-11T07:58:23;7.22;;;1.23;;
46481;SDS011;32193;51.446;6.792;2022-07-11T08:00:49;6.22;;;1.90;;
46481;SDS011;32193;51.446;6.792;2022-07-11T08:03:33;6.05;;;1.13;;
46481;SDS011;32193;51.446;6.792;2022-07-11T08:05:59;6.78;;;1.48;;
46481;SDS011;32193;51.446;6.792;2022-07-11T08:08:25;5.60;;;1.17;;
46481;SDS011;32193;51.446;6.792;2022-07-11T08:10:50;5.22;;;1.05;;
46481;SDS011;32193;51.446;6.792;2022-07-11T08:13:17;5.82;;;1.75;;
46481;SDS011;32193;51.446;6.792;2022-07-11T08:15:43;5.10;;;1.10;;
46481;SDS011;32193;51.446;6.792;2022-07-11T08:18:09;4.25;;;0.93;;
46481;SDS011;32193;51.446;6.792;2022-07-11T08:20:35;4.13;;;0.90;;
46481;SDS011;32193;51.446;6.792;2022-07-11T08:23:01;3.78;;;0.93;;
46481;SDS011;32193;51.446;6.792;2022-07-11T08:25:29;3.58;;;0.70;;
46481;SDS011;32193;51.446;6.792;2022-07-11T08:27:55;3.22;;;0.80;;
46481;SDS011;32193;51.446;6.792;2022-07-11T08:30:21;5.13;;;0.88;;
46481;SDS011;32193;51.446;6.792;2022-07-11T08:32:46;3.65;;;0.88;;
46481;SDS011;32193;51.446;6.792;2022-07-11T08:35:12;3.75;;;1.00;;
46481;SDS011;32193;51.446;6.792;2022-07-11T08:37:41;4.38;;;0.82;;
46481;SDS011;32193;51.446;6.792;2022-07-11T08:40:08;2.30;;;0.70;;
46481;SDS011;32193;51.446;6.792;2022-07-11T08:42:41;4.10;;;1.15;;
46481;SDS011;32193;51.446;6.792;2022-07-11T08:45:11;3.40;;;0.90;;
46481;SDS011;32193;51.446;6.792;2022-07-11T08:47:40;14.05;;;1.38;;
46481;SDS011;32193;51.446;6.792;2022-07-11T08:50:06;6.05;;;1.00;;
46481;SDS011;32193;51.446;6.792;2022-07-11T08:52:33;9.75;;;1.10;;
46481;SDS011;32193;51.446;6.792;2022-07-11T08:54:59;9.40;;;0.93;;
46481;SDS011;32193;51.446;6.792;2022-07-11T08:57:24;5.88;;;0.95;;
46481;SDS011;32193;51.446;6.792;2022-07-11T08:59:52;7.95;;;0.98;;
46481;SDS011;32193;51.446;6.792;2022-07-11T09:02:20;3.13;;;0.70;;
46481;SDS011;32193;51.446;6.792;2022-07-11T09:04:46;7.22;;;0.90;;
46481;SDS011;32193;51.446;6.792;2022-07-11T09:07:12;5.80;;;0.95;;
46481;SDS011;32193;51.446;6.792;2022-07-11T09:09:38;9.82;;;1.30;;
46481;SDS011;32193;51.446;6.792;2022-07-11T09:12:09;5.68;;;0.77;;
46481;SDS011;32193;51.446;6.792;2022-07-11T09:14:37;3.65;;;0.70;;
46481;SDS011;32193;51.446;6.792;2022-07-11T09:17:03;6.45;;;0.90;;
46481;SDS011;32193;51.446;6.792;2022-07-11T09:19:31;5.00;;;0.95;;
46481;SDS011;32193;51.446;6.792;2022-07-11T09:22:04;4.53;;;1.10;;
46481;SDS011;32193;51.446;6.792;2022-07-11T09:27:41;6.30;;;1.67;;
46481;SDS011;32193;51.446;6.792;2022-07-11T09:32:51;6.00;;;1.67;;
46481;SDS011;32193;51.446;6.792;2022-07-11T09:35:37;5.43;;;0.90;;
46481;SDS011;32193;51.446;6.792;2022-07-11T09:38:05;5.40;;;0.90;;
46481;SDS011;32193;51.446;6.792;2022-07-11T09:40:31;3.70;;;0.80;;
46481;SDS011;32193;51.446;6.792;2022-07-11T09:42:57;6.50;;;1.20;;
46481;SDS011;32193;51.446;6.792;2022-07-11T09:45:24;3.90;;;1.00;;
46481;SDS011;32193;51.446;6.792;2022-07-11T09:47:51;3.38;;;1.00;;
46481;SDS011;32193;51.446;6.792;2022-07-11T09:50:21;3.88;;;1.17;;
46481;SDS011;32193;51.446;6.792;2022-07-11T09:55:28;4.38;;;0.77;;
46481;SDS011;32193;51.446;6.792;2022-07-11T09:57:54;3.47;;;1.38;;
46481;SDS011;32193;51.446;6.792;2022-07-11T10:00:20;5.80;;;1.10;;
46481;SDS011;32193;51.446;6.792;2022-07-11T10:02:46;3.30;;;0.80;;
46481;SDS011;32193;51.446;6.792;2022-07-11T10:05:12;4.88;;;1.20;;
46481;SDS011;32193;51.446;6.792;2022-07-11T10:07:38;13.13;;;3.03;;
46481;SDS011;32193;51.446;6.792;2022-07-11T10:10:05;9.25;;;2.25;;
46481;SDS011;32193;51.446;6.792;2022-07-11T10:12:32;4.47;;;1.35;;
46481;SDS011;32193;51.446;6.792;2022-07-11T10:15:02;9.70;;;1.67;;
46481;SDS011;32193;51.446;6.792;2022-07-11T10:17:32;4.68;;;0.98;;
46481;SDS011;32193;51.446;6.792;2022-07-11T10:22:35;7.53;;;1.30;;
46481;SDS011;32193;51.446;6.792;2022-07-11T10:30:00;3.05;;;0.60;;
46481;SDS011;32193;51.446;6.792;2022-07-11T10:32:26;2.75;;;0.80;;
46481;SDS011;32193;51.446;6.792;2022-07-11T10:35:05;4.97;;;0.60;;
46481;SDS011;32193;51.446;6.792;2022-07-11T10:37:45;2.90;;;0.68;;
46481;SDS011;32193;51.446;6.792;2022-07-11T10:40:12;3.13;;;0.70;;
46481;SDS011;32193;51.446;6.792;2022-07-11T10:42:39;3.28;;;0.60;;
46481;SDS011;32193;51.446;6.792;2022-07-11T10:45:10;4.50;;;0.80;;
46481;SDS011;32193;51.446;6.792;2022-07-11T10:47:45;9.98;;;1.40;;
46481;SDS011;32193;51.446;6.792;2022-07-11T10:52:40;3.83;;;0.70;;
46481;SDS011;32193;51.446;6.792;2022-07-11T11:00:20;3.22;;;1.40;;
46481;SDS011;32193;51.446;6.792;2022-07-11T11:11:08;8.43;;;2.25;;
46481;SDS011;32193;51.446;6.792;2022-07-11T11:16:41;7.22;;;3.08;;
46481;SDS011;32193;51.446;6.792;2022-07-11T11:19:07;5.13;;;1.40;;
46481;SDS011;32193;51.446;6.792;2022-07-11T11:22:00;14.38;;;2.50;;
46481;SDS011;32193;51.446;6.792;2022-07-11T11:24:27;6.75;;;1.20;;
46481;SDS011;32193;51.446;6.792;2022-07-11T11:26:53;3.25;;;0.98;;
46481;SDS011;32193;51.446;6.792;2022-07-11T11:29:20;7.80;;;1.50;;
46481;SDS011;32193;51.446;6.792;2022-07-11T11:31:51;5.68;;;1.20;;
46481;SDS011;32193;51.446;6.792;2022-07-11T11:34:19;3.78;;;1.35;;
46481;SDS011;32193;51.446;6.792;2022-07-11T11:36:51;4.35;;;1.40;;
46481;SDS011;32193;51.446;6.792;2022-07-11T11:39:24;4.35;;;1.23;;
46481;SDS011;32193;51.446;6.792;2022-07-11T11:41:50;3.15;;;1.00;;
46481;SDS011;32193;51.446;6.792;2022-07-11T11:44:16;6.50;;;1.10;;
46481;SDS011;32193;51.446;6.792;2022-07-11T11:46:42;6.13;;;1.20;;
46481;SDS011;32193;51.446;6.792;2022-07-11T11:49:08;4.38;;;1.15;;
46481;SDS011;32193;51.446;6.792;2022-07-11T11:51:34;8.75;;;1.30;;
46481;SDS011;32193;51.446;6.792;2022-07-11T11:54:02;4.45;;;1.63;;
46481;SDS011;32193;51.446;6.792;2022-07-11T11:56:28;4.30;;;1.20;;
46481;SDS011;32193;51.446;6.792;2022-07-11T11:58:56;3.35;;;1.08;;
46481;SDS011;32193;51.446;6.792;2022-07-11T12:01:29;3.15;;;0.80;;
46481;SDS011;32193;51.446;6.792;2022-07-11T12:04:00;6.10;;;1.00;;
46481;SDS011;32193;51.446;6.792;2022-07-11T12:06:33;4.45;;;1.00;;
46481;SDS011;32193;51.446;6.792;2022-07-11T12:11:25;10.15;;;1.65;;
46481;SDS011;32193;51.446;6.792;2022-07-11T12:13:57;5.28;;;0.77;;
46481;SDS011;32193;51.446;6.792;2022-07-11T12:16:24;3.78;;;1.02;;
46481;SDS011;32193;51.446;6.792;2022-07-11T12:19:11;3.20;;;0.90;;
46481;SDS011;32193;51.446;6.792;2022-07-11T12:21:38;5.80;;;1.27;;
46481;SDS011;32193;51.446;6.792;2022-07-11T12:24:06;7.50;;;1.77;;
46481;SDS011;32193;51.446;6.792;2022-07-11T12:26:36;6.03;;;1.20;;
46481;SDS011;32193;51.446;6.792;2022-07-11T12:29:04;6.45;;;1.98;;
46481;SDS011;32193;51.446;6.792;2022-07-11T12:37:04;7.55;;;1.50;;
46481;SDS011;32193;51.446;6.792;2022-07-11T12:39:31;9.18;;;2.20;;
46481;SDS011;32193;51.446;6.792;2022-07-11T12:41:59;7.13;;;2.05;;
46481;SDS011;32193;51.446;6.792;2022-07-11T12:44:26;4.05;;;1.60;;
46481;SDS011;32193;51.446;6.792;2022-07-11T12:47:12;9.68;;;2.00;;
46481;SDS011;32193;51.446;6.792;2022-07-11T12:49:39;6.25;;;1.90;;
46481;SDS011;32193;51.446;6.792;2022-07-11T12:52:09;6.45;;;1.60;;
46481;SDS011;32193;51.446;6.792;2022-07-11T12:54:35;6.35;;;1.60;;
46481;SDS011;32193;51.446;6.792;2022-07-11T12:57:01;7.70;;;1.80;;
46481;SDS011;32193;51.446;6.792;2022-07-11T12:59:28;8.10;;;2.70;;
46481;SDS011;32193;51.446;6.792;2022-07-11T13:02:04;3.90;;;1.83;;
46481;SDS011;32193;51.446;6.792;2022-07-11T13:04:46;5.18;;;2.45;;
46481;SDS011;32193;51.446;6.792;2022-07-11T13:10:04;11.20;;;3.20;;
46481;SDS011;32193;51.446;6.792;2022-07-11T13:12:31;6.65;;;3.05;;
46481;SDS011;32193;51.446;6.792;2022-07-11T13:14:59;8.35;;;3.00;;
46481;SDS011;32193;51.446;6.792;2022-07-11T13:17:35;10.63;;;3.10;;
46481;SDS011;32193;51.446;6.792;2022-07-11T13:20:01;8.55;;;2.65;;
46481;SDS011;32193;51.446;6.792;2022-07-11T13:22:27;4.72;;;1.77;;
46481;SDS011;32193;51.446;6.792;2022-07-11T13:24:52;4.38;;;1.35;;
46481;SDS011;32193;51.446;6.792;2022-07-11T13:27:19;4.68;;;1.52;;
46481;SDS011;32193;51.446;6.792;2022-07-11T13:29:45;5.78;;;2.13;;
46481;SDS011;32193;51.446;6.792;2022-07-11T13:32:11;5.55;;;2.38;;
46481;SDS011;32193;51.446;6.792;2022-07-11T13:34:37;7.85;;;2.63;;
46481;SDS011;32193;51.446;6.792;2022-07-11T13:37:03;5.35;;;2.10;;
46481;SDS011;32193;51.446;6.792;2022-07-11T13:39:29;6.22;;;1.50;;
46481;SDS011;32193;51.446;6.792;2022-07-11T13:41:54;11.43;;;2.22;;
46481;SDS011;32193;51.446;6.792;2022-07-11T13:44:20;8.40;;;2.53;;
46481;SDS011;32193;51.446;6.792;2022-07-11T13:46:46;5.90;;;2.03;;
46481;SDS011;32193;51.446;6.792;2022-07-11T13:49:12;7.53;;;1.75;;
46481;SDS011;32193;51.446;6.792;2022-07-11T13:51:39;7.95;;;3.05;;
46481;SDS011;32193;51.446;6.792;2022-07-11T13:54:05;5.07;;;1.48;;
46481;SDS011;32193;51.446;6.792;2022-07-11T13:56:31;5.10;;;1.30;;
46481;SDS011;32193;51.446;6.792;2022-07-11T13:58:57;3.83;;;1.40;;
46481;SDS011;32193;51.446;6.792;2022-07-11T14:01:23;4.50;;;1.27;;
46481;SDS011;32193;51.446;6.792;2022-07-11T14:03:49;7.22;;;1.92;;
46481;SDS011;32193;51.446;6.792;2022-07-11T14:06:14;8.48;;;1.88;;
46481;SDS011;32193;51.446;6.792;2022-07-11T14:08:40;5.13;;;1.48;;
46481;SDS011;32193;51.446;6.792;2022-07-11T14:11:06;4.28;;;1.30;;
46481;SDS011;32193;51.446;6.792;2022-07-11T14:13:32;5.28;;;1.48;;
46481;SDS011;32193;51.446;6.792;2022-07-11T14:15:58;5.07;;;1.40;;
46481;SDS011;32193;51.446;6.792;2022-07-11T14:18:24;4.40;;;1.83;;
46481;SDS011;32193;51.446;6.792;2022-07-11T14:20:50;4.75;;;1.38;;
46481;SDS011;32193;51.446;6.792;2022-07-11T14:23:16;5.07;;;1.45;;
46481;SDS011;32193;51.446;6.792;2022-07-11T14:25:41;5.30;;;1.20;;
46481;SDS011;32193;51.446;6.792;2022-07-11T14:28:08;6.88;;;1.85;;
46481;SDS011;32193;51.446;6.792;2022-07-11T14:30:34;3.97;;;1.00;;
46481;SDS011;32193;51.446;6.792;2022-07-11T14:33:00;4.35;;;1.00;;
46481;SDS011;32193;51.446;6.792;2022-07-11T14:35:26;4.63;;;1.17;;
46481;SDS011;32193;51.446;6.792;2022-07-11T14:37:52;4.53;;;1.20;;
46481;SDS011;32193;51.446;6.792;2022-07-11T14:40:18;3.97;;;1.33;;
46481;SDS011;32193;51.446;6.792;2022-07-11T14:42:45;2.92;;;0.93;;
46481;SDS011;32193;51.446;6.792;2022-07-11T14:45:11;6.50;;;1.20;;
46481;SDS011;32193;51.446;6.792;2022-07-11T14:47:37;5.50;;;1.55;;
46481;SDS011;32193;51.446;6.792;2022-07-11T14:50:05;4.10;;;1.13;;
46481;SDS011;32193;51.446;6.792;2022-07-11T14:52:31;7.13;;;1.25;;
46481;SDS011;32193;51.446;6.792;2022-07-11T14:54:57;5.07;;;1.75;;
46481;SDS011;32193;51.446;6.792;2022-07-11T14:57:23;5.20;;;2.13;;
46481;SDS011;32193;51.446;6.792;2022-07-11T14:59:49;5.70;;;2.13;;
46481;SDS011;32193;51.446;6.792;2022-07-11T15:02:16;6.32;;;2.50;;
46481;SDS011;32193;51.446;6.792;2022-07-11T15:05:01;7.47;;;2.42;;
46481;SDS011;32193;51.446;6.792;2022-07-11T15:07:27;6.80;;;2.47;;
46481;SDS011;32193;51.446;6.792;2022-07-11T15:12:56;10.88;;;2.80;;
46481;SDS011;32193;51.446;6.792;2022-07-11T15:15:22;6.82;;;2.58;;
46481;SDS011;32193;51.446;6.792;2022-07-11T15:17:48;7.28;;;2.40;;
46481;SDS011;32193;51.446;6.792;2022-07-11T15:20:15;7.55;;;3.00;;
46481;SDS011;32193;51.446;6.792;2022-07-11T15:22:41;6.45;;;2.90;;
46481;SDS011;32193;51.446;6.792;2022-07-11T15:25:07;6.53;;;2.75;;
46481;SDS011;32193;51.446;6.792;2022-07-11T15:27:33;7.72;;;2.50;;
46481;SDS011;32193;51.446;6.792;2022-07-11T15:29:59;7.25;;;2.90;;
46481;SDS011;32193;51.446;6.792;2022-07-11T15:32:24;5.63;;;2.30;;
46481;SDS011;32193;51.446;6.792;2022-07-11T15:34:52;6.35;;;2.30;;